Time;durP1;ratioP1;P1;durP2;ratioP2;P2;SDS_P1;SDS_P2;PMS_P1;PMS_P2;Temp;Humidity;BMP_temperature;BMP_pressure;BME280_temperature;BME280_humidity;BME280_pressure;Samples;Min_cycle;Max_cycle;Signal;HPM_P1;HPM_P2
2023/11/29 00:01:48;;;;;;;9.02;6.00;;;3.50;99.90;;;;;;5020686;28;20293;-44
2023/11/29 00:04:14;;;;;;;10.65;4.70;;;3.50;99.90;;;;;;5019993;28;20200;-41
2023/11/29 00:06:40;;;;;;;9.48;3.95;;;3.50;99.90;;;;;;5053045;28;20226;-38
2023/11/29 00:09:06;;;;;;;7.65;2.00;;;3.50;99.90;;;;;;5020879;28;20191;-40
2023/11/29 00:11:32;;;;;;;5.57;1.80;;;3.50;99.90;;;;;;5021010;28;20234;-39
2023/11/29 00:13:58;;;;;;;8.07;1.95;;;3.50;99.90;;;;;;5020920;28;20211;-40
2023/11/29 00:16:24;;;;;;;7.55;2.67;;;3.50;99.90;;;;;;5019679;28;20201;-41
2023/11/29 00:18:50;;;;;;;8.02;2.70;;;3.40;99.90;;;;;;5018153;28;20198;-40
2023/11/29 00:21:15;;;;;;;6.07;2.92;;;3.40;99.90;;;;;;5052115;28;20220;-39
2023/11/29 00:23:41;;;;;;;11.65;2.22;;;3.40;99.90;;;;;;5020205;28;20179;-46
2023/11/29 00:26:07;;;;;;;3.78;2.13;;;3.40;99.90;;;;;;5020815;28;20212;-42
2023/11/29 00:28:33;;;;;;;4.07;1.98;;;3.40;99.90;;;;;;5020580;28;20194;-44
2023/11/29 00:30:59;;;;;;;7.82;2.35;;;3.30;99.90;;;;;;5035630;28;20223;-38
2023/11/29 00:33:25;;;;;;;6.75;2.20;;;3.30;99.90;;;;;;5020748;28;20184;-41
2023/11/29 00:35:52;;;;;;;5.13;1.65;;;3.30;99.90;;;;;;5021397;28;20195;-43
2023/11/29 00:38:17;;;;;;;4.97;1.92;;;3.30;99.90;;;;;;5020008;28;20202;-43
2023/11/29 00:40:44;;;;;;;4.88;1.70;;;3.20;99.90;;;;;;5018680;28;20228;-40
2023/11/29 00:43:11;;;;;;;3.92;1.60;;;3.20;99.90;;;;;;5020157;28;20195;-47
2023/11/29 00:45:36;;;;;;;7.57;1.90;;;3.20;99.90;;;;;;5021168;28;20735;-38
2023/11/29 00:48:02;;;;;;;6.75;2.10;;;3.10;99.90;;;;;;5035232;28;20188;-41
2023/11/29 00:50:29;;;;;;;4.05;1.90;;;3.10;99.90;;;;;;5002605;28;20184;-42
2023/11/29 00:52:54;;;;;;;5.47;2.15;;;3.00;99.90;;;;;;5019755;28;20206;-40
2023/11/29 00:55:20;;;;;;;8.20;2.67;;;3.00;99.90;;;;;;5020071;28;20641;-39
2023/11/29 00:57:47;;;;;;;3.25;2.40;;;2.90;99.90;;;;;;5019500;28;20183;-40
2023/11/29 01:00:13;;;;;;;5.10;2.65;;;2.90;99.90;;;;;;5023729;28;20207;-46
2023/11/29 01:02:39;;;;;;;5.78;3.30;;;2.90;99.90;;;;;;5022968;28;20571;-42
2023/11/29 01:05:05;;;;;;;4.72;3.60;;;2.80;99.90;;;;;;5022350;28;20208;-43
2023/11/29 01:07:31;;;;;;;3.97;3.10;;;2.80;99.90;;;;;;5023517;28;20202;-42
2023/11/29 01:09:57;;;;;;;3.13;2.75;;;2.70;99.90;;;;;;5018208;28;20656;-45
2023/11/29 01:12:23;;;;;;;4.63;3.00;;;2.60;99.90;;;;;;5022435;28;20551;-44
2023/11/29 01:14:49;;;;;;;3.10;2.80;;;2.60;99.90;;;;;;5024163;28;20219;-37
2023/11/29 01:17:15;;;;;;;4.97;2.88;;;2.60;99.90;;;;;;5023594;28;20180;-42
2023/11/29 01:19:40;;;;;;;3.45;2.20;;;2.60;99.90;;;;;;5023816;28;20188;-41
2023/11/29 01:22:07;;;;;;;3.17;1.90;;;2.50;99.90;;;;;;5023748;28;20211;-42
2023/11/29 01:24:33;;;;;;;2.28;2.08;;;2.50;99.90;;;;;;5023107;28;21357;-42
2023/11/29 01:26:59;;;;;;;2.25;1.90;;;2.50;99.90;;;;;;5022014;28;20187;-37
2023/11/29 01:29:25;;;;;;;2.63;1.90;;;2.50;99.90;;;;;;5023531;28;20185;-39
2023/11/29 01:31:51;;;;;;;2.55;1.70;;;2.50;99.90;;;;;;5022248;28;20188;-41
2023/11/29 01:34:17;;;;;;;3.55;1.70;;;2.50;99.90;;;;;;5023051;28;20191;-43
2023/11/29 01:36:44;;;;;;;3.47;1.48;;;2.50;99.90;;;;;;5021930;28;20269;-43
2023/11/29 01:39:15;;;;;;;4.05;1.40;;;2.60;99.90;;;;;;5023480;28;20211;-42
2023/11/29 01:41:42;;;;;;;3.05;1.70;;;2.60;99.90;;;;;;5022915;28;20208;-41
2023/11/29 01:44:08;;;;;;;2.05;1.40;;;2.60;99.90;;;;;;5022592;28;20901;-39
2023/11/29 01:46:35;;;;;;;1.60;1.50;;;2.70;99.90;;;;;;5023299;28;20199;-45
2023/11/29 01:49:02;;;;;;;1.65;1.48;;;2.70;99.90;;;;;;5022122;28;20724;-40
2023/11/29 01:51:29;;;;;;;1.73;1.50;;;2.70;99.90;;;;;;5022004;28;20212;-39
2023/11/29 01:53:56;;;;;;;2.33;1.63;;;2.70;99.90;;;;;;5022588;28;20194;-39
2023/11/29 01:56:23;;;;;;;2.05;1.40;;;2.80;99.90;;;;;;5023538;28;20267;-44
2023/11/29 01:58:49;;;;;;;5.13;1.80;;;2.80;99.90;;;;;;5054498;28;20723;-40
2023/11/29 02:01:17;;;;;;;2.70;1.88;;;2.90;99.90;;;;;;5022842;28;20227;-39
2023/11/29 02:03:43;;;;;;;2.55;1.63;;;2.90;99.90;;;;;;5021817;28;20191;-37
2023/11/29 02:06:09;;;;;;;2.30;1.80;;;3.00;99.90;;;;;;5020352;28;20211;-37
2023/11/29 02:08:37;;;;;;;2.25;1.90;;;2.90;99.90;;;;;;5021695;28;20184;-38
2023/11/29 02:11:03;;;;;;;2.67;2.10;;;3.00;99.90;;;;;;5021796;28;20707;-40
2023/11/29 02:13:29;;;;;;;2.10;1.80;;;3.00;99.90;;;;;;5021324;28;20234;-41
2023/11/29 02:15:56;;;;;;;3.25;2.35;;;3.10;99.90;;;;;;5001837;28;20218;-38
2023/11/29 02:18:25;;;;;;;2.72;2.05;;;3.10;99.90;;;;;;5022927;28;20234;-42
2023/11/29 02:20:51;;;;;;;4.18;2.58;;;3.10;99.90;;;;;;5023087;28;20220;-42
2023/11/29 02:23:33;;;;;;;3.03;2.38;;;3.00;99.90;;;;;;5021636;28;20222;-42
2023/11/29 02:25:59;;;;;;;3.13;2.83;;;3.00;99.90;;;;;;5016875;28;20191;-41
2023/11/29 02:28:25;;;;;;;2.83;2.38;;;3.00;99.90;;;;;;5023107;28;20194;-39
2023/11/29 02:30:51;;;;;;;3.95;2.80;;;3.00;99.90;;;;;;5022806;28;20640;-41
2023/11/29 02:33:17;;;;;;;3.75;2.80;;;3.00;99.90;;;;;;5020972;28;20353;-46
2023/11/29 02:35:43;;;;;;;3.17;2.70;;;2.90;99.90;;;;;;5022557;28;20184;-40
2023/11/29 02:38:09;;;;;;;3.08;2.58;;;2.90;99.90;;;;;;5020922;28;20772;-38
2023/11/29 02:40:35;;;;;;;3.65;2.90;;;2.90;99.90;;;;;;5022417;28;20406;-42
2023/11/29 02:43:01;;;;;;;3.45;2.85;;;2.80;99.90;;;;;;5022373;28;20263;-39
2023/11/29 02:45:27;;;;;;;4.38;3.67;;;2.80;99.90;;;;;;5020494;28;20188;-43
2023/11/29 02:47:53;;;;;;;6.95;3.70;;;2.70;99.90;;;;;;5021321;28;20223;-39
2023/11/29 02:50:19;;;;;;;6.68;3.90;;;2.70;99.90;;;;;;5004047;28;20667;-40
2023/11/29 02:52:48;;;;;;;5.40;4.00;;;2.70;99.90;;;;;;5020266;28;21184;-46
2023/11/29 02:55:14;;;;;;;8.25;5.05;;;2.70;99.90;;;;;;5036791;28;20184;-43
2023/11/29 02:57:40;;;;;;;5.80;4.28;;;2.70;99.90;;;;;;5020900;28;20210;-37
2023/11/29 03:00:09;;;;;;;6.35;4.78;;;2.70;99.90;;;;;;5022647;28;20234;-44
2023/11/29 03:02:35;;;;;;;7.18;5.18;;;2.70;99.90;;;;;;5019732;28;20616;-44
2023/11/29 03:05:01;;;;;;;12.55;5.55;;;2.80;99.90;;;;;;5019796;28;20184;-39
2023/11/29 03:07:27;;;;;;;7.85;5.80;;;2.80;99.90;;;;;;5020673;28;21094;-42
2023/11/29 03:09:53;;;;;;;7.13;5.57;;;2.90;99.90;;;;;;5036805;28;20191;-41
2023/11/29 03:12:18;;;;;;;7.30;5.68;;;2.90;99.90;;;;;;5021973;28;20190;-48
2023/11/29 03:14:44;;;;;;;11.85;5.68;;;2.90;99.90;;;;;;5021892;28;20195;-40
2023/11/29 03:17:10;;;;;;;9.15;5.78;;;3.00;99.90;;;;;;5021534;28;20188;-40
2023/11/29 03:19:36;;;;;;;9.60;5.50;;;3.10;99.90;;;;;;5020281;28;20199;-38
2023/11/29 03:22:02;;;;;;;8.57;5.95;;;3.10;99.90;;;;;;5018908;28;20239;-39
2023/11/29 03:24:28;;;;;;;8.25;6.15;;;3.10;99.90;;;;;;5020978;28;20180;-38
2023/11/29 03:26:54;;;;;;;8.75;5.47;;;3.20;99.90;;;;;;5020909;28;20559;-39
2023/11/29 03:29:20;;;;;;;8.52;4.95;;;3.20;99.90;;;;;;5020296;28;20200;-38
2023/11/29 03:31:46;;;;;;;7.10;4.68;;;3.20;99.90;;;;;;5019946;28;20196;-41
2023/11/29 03:34:14;;;;;;;7.15;4.40;;;3.20;99.90;;;;;;5035916;28;20199;-44
2023/11/29 03:36:40;;;;;;;7.40;4.35;;;3.20;99.90;;;;;;5020546;28;20283;-38
2023/11/29 03:39:06;;;;;;;6.38;3.83;;;3.30;99.90;;;;;;5002171;28;20250;-45
2023/11/29 03:41:31;;;;;;;3.88;3.20;;;3.30;99.90;;;;;;5020802;28;20219;-43
2023/11/29 03:43:57;;;;;;;5.55;3.30;;;3.20;99.90;;;;;;5021423;28;20188;-41
2023/11/29 03:46:23;;;;;;;6.63;2.78;;;3.20;99.90;;;;;;5021209;28;20188;-42
2023/11/29 03:48:49;;;;;;;3.05;2.50;;;3.20;99.90;;;;;;5021116;28;20195;-39
2023/11/29 03:51:15;;;;;;;4.22;2.80;;;3.10;99.90;;;;;;5020912;28;20192;-37
2023/11/29 03:53:41;;;;;;;3.97;2.40;;;3.10;99.90;;;;;;5018943;28;20233;-42
2023/11/29 03:56:07;;;;;;;3.55;2.30;;;3.00;99.90;;;;;;5020882;28;20218;-39
2023/11/29 03:58:33;;;;;;;5.60;2.50;;;3.00;99.90;;;;;;5020123;28;21064;-38
2023/11/29 04:01:01;;;;;;;3.75;2.45;;;2.90;99.90;;;;;;5051704;28;20227;-41
2023/11/29 04:03:28;;;;;;;3.88;2.05;;;2.90;99.90;;;;;;5020649;28;20690;-38
2023/11/29 04:05:54;;;;;;;2.75;2.10;;;2.90;99.90;;;;;;5019488;28;20180;-41
2023/11/29 04:08:20;;;;;;;3.85;1.80;;;2.90;99.90;;;;;;5052674;28;20192;-38
2023/11/29 04:10:47;;;;;;;2.30;2.00;;;2.90;99.90;;;;;;5020367;28;20307;-44
2023/11/29 04:13:13;;;;;;;3.85;1.67;;;2.80;99.90;;;;;;4999179;28;20202;-46
2023/11/29 04:15:39;;;;;;;3.85;1.77;;;2.80;99.90;;;;;;5052119;28;20577;-39
2023/11/29 04:18:05;;;;;;;2.60;1.83;;;2.80;99.90;;;;;;5052066;28;20196;-40
2023/11/29 04:20:31;;;;;;;2.20;1.80;;;2.90;99.90;;;;;;5052775;28;22044;-41
2023/11/29 04:22:58;;;;;;;5.13;1.42;;;2.90;99.90;;;;;;5018904;28;20216;-42
2023/11/29 04:25:24;;;;;;;4.35;1.90;;;2.90;99.90;;;;;;5019459;28;20222;-48
2023/11/29 04:27:51;;;;;;;2.50;1.70;;;2.90;99.90;;;;;;5006819;28;20191;-42
2023/11/29 04:30:18;;;;;;;5.78;1.90;;;2.90;99.90;;;;;;5019703;28;20559;-39
2023/11/29 04:32:44;;;;;;;2.38;1.63;;;3.00;99.90;;;;;;5019810;28;21199;-38
2023/11/29 04:35:10;;;;;;;5.70;2.00;;;3.00;99.90;;;;;;5056533;28;20270;-40
2023/11/29 04:37:36;;;;;;;5.15;2.53;;;3.10;99.90;;;;;;5005461;28;20699;-41
2023/11/29 04:40:04;;;;;;;3.70;1.85;;;3.10;99.90;;;;;;5022805;28;20217;-40
2023/11/29 04:42:30;;;;;;;4.68;1.73;;;3.20;99.90;;;;;;5022724;28;20184;-42
2023/11/29 04:44:56;;;;;;;2.72;1.73;;;3.20;99.90;;;;;;5023457;28;20206;-41
2023/11/29 04:47:23;;;;;;;4.22;1.98;;;3.20;99.90;;;;;;5024467;28;20192;-40
2023/11/29 04:49:49;;;;;;;2.83;2.17;;;3.20;99.90;;;;;;5023417;28;20275;-41
2023/11/29 04:52:15;;;;;;;5.07;2.10;;;3.20;99.90;;;;;;5023033;28;20202;-40
2023/11/29 04:54:41;;;;;;;2.90;2.10;;;3.30;99.90;;;;;;5024652;28;20195;-43
2023/11/29 04:57:07;;;;;;;2.20;2.00;;;3.30;99.90;;;;;;5023283;28;20258;-45
2023/11/29 04:59:37;;;;;;;2.63;2.22;;;3.30;99.90;;;;;;5023737;28;20184;-40
2023/11/29 05:02:04;;;;;;;4.00;2.40;;;3.30;99.90;;;;;;5024020;28;21008;-42
2023/11/29 05:04:30;;;;;;;4.07;2.30;;;3.30;99.90;;;;;;5023160;28;20195;-42
2023/11/29 05:06:56;;;;;;;3.30;1.80;;;3.20;99.90;;;;;;5023590;28;20184;-43
2023/11/29 05:09:22;;;;;;;2.30;1.92;;;3.20;99.90;;;;;;5024230;28;20186;-39
2023/11/29 05:11:48;;;;;;;3.25;2.20;;;3.30;99.90;;;;;;5022416;28;20196;-44
2023/11/29 05:14:14;;;;;;;3.47;2.25;;;3.30;99.90;;;;;;5056288;28;20192;-41
2023/11/29 05:16:40;;;;;;;3.17;2.05;;;3.30;99.90;;;;;;5023793;28;20192;-42
2023/11/29 05:19:06;;;;;;;2.42;2.20;;;3.30;99.90;;;;;;5022723;28;20188;-42
2023/11/29 05:21:32;;;;;;;2.60;2.20;;;3.30;99.90;;;;;;5023578;28;20562;-39
2023/11/29 05:23:58;;;;;;;3.47;2.10;;;3.30;99.90;;;;;;5023068;28;20196;-45
2023/11/29 05:26:25;;;;;;;4.45;2.05;;;3.30;99.90;;;;;;5022736;28;20199;-39
2023/11/29 05:28:50;;;;;;;2.70;2.15;;;3.30;99.90;;;;;;5023009;28;20192;-44
2023/11/29 05:31:18;;;;;;;2.90;2.30;;;3.30;99.90;;;;;;5023422;28;20249;-42
2023/11/29 05:33:44;;;;;;;2.83;2.20;;;3.30;99.90;;;;;;5023846;28;20279;-39
2023/11/29 05:36:10;;;;;;;4.32;2.28;;;3.30;99.90;;;;;;5023782;28;20321;-41
2023/11/29 05:38:36;;;;;;;5.85;2.97;;;3.30;99.90;;;;;;5023706;28;20234;-40
2023/11/29 05:41:02;;;;;;;6.57;3.05;;;3.30;99.90;;;;;;5023603;28;21343;-42
2023/11/29 05:43:27;;;;;;;5.85;2.50;;;3.30;99.90;;;;;;5023954;28;20660;-47
2023/11/29 05:45:53;;;;;;;3.38;2.13;;;3.30;99.90;;;;;;5021154;28;20678;-41
2023/11/29 05:48:19;;;;;;;2.00;1.80;;;3.30;99.90;;;;;;5022128;28;20212;-42
2023/11/29 05:50:45;;;;;;;4.78;1.90;;;3.20;99.90;;;;;;5054945;28;20298;-40
2023/11/29 05:53:11;;;;;;;4.75;1.70;;;3.30;99.90;;;;;;5022202;28;20188;-42
2023/11/29 05:55:37;;;;;;;4.13;1.80;;;3.20;99.90;;;;;;5004748;28;20636;-45
2023/11/29 05:58:05;;;;;;;3.05;2.08;;;3.20;99.90;;;;;;5021002;28;21007;-42
2023/11/29 06:00:32;;;;;;;6.00;3.30;;;3.10;99.90;;;;;;5021461;28;20211;-42
2023/11/29 06:02:58;;;;;;;6.30;3.33;;;3.10;99.90;;;;;;5021401;28;20199;-42
2023/11/29 06:05:24;;;;;;;7.40;3.97;;;3.10;99.90;;;;;;5022569;28;20289;-48
2023/11/29 06:07:50;;;;;;;9.05;4.80;;;3.10;99.90;;;;;;5021577;28;20677;-49
2023/11/29 06:10:16;;;;;;;9.65;5.43;;;3.10;99.90;;;;;;5022627;28;20710;-42
2023/11/29 06:12:42;;;;;;;10.20;5.82;;;3.10;99.90;;;;;;5021738;28;20268;-41
2023/11/29 06:15:08;;;;;;;13.27;6.38;;;3.20;99.90;;;;;;5021189;28;20172;-44
2023/11/29 06:17:36;;;;;;;11.73;5.90;;;3.30;99.90;;;;;;5038433;28;20199;-43
2023/11/29 06:20:09;;;;;;;17.67;6.53;;;3.30;99.90;;;;;;5022293;28;20184;-43
2023/11/29 06:22:35;;;;;;;17.13;6.20;;;3.40;99.90;;;;;;5021939;28;20727;-41
2023/11/29 06:25:07;;;;;;;12.60;6.82;;;3.40;99.90;;;;;;5022059;28;20747;-43
2023/11/29 06:27:34;;;;;;;12.88;6.68;;;3.30;99.90;;;;;;5053189;28;20559;-45
2023/11/29 06:30:00;;;;;;;13.40;6.43;;;3.40;99.90;;;;;;5023295;28;20200;-40
2023/11/29 06:32:26;;;;;;;12.23;6.80;;;3.40;99.90;;;;;;5020012;28;20200;-38
2023/11/29 06:34:55;;;;;;;15.90;6.70;;;3.40;99.90;;;;;;5022502;28;20498;-42
2023/11/29 06:37:21;;;;;;;9.73;5.65;;;3.40;99.90;;;;;;5022460;28;20188;-41
2023/11/29 06:39:47;;;;;;;12.93;5.95;;;3.50;99.90;;;;;;5022325;28;20190;-41
2023/11/29 06:42:14;;;;;;;14.45;6.03;;;3.50;99.90;;;;;;5000948;28;20222;-44
2023/11/29 06:44:40;;;;;;;11.88;5.57;;;3.50;99.90;;;;;;5022191;28;20270;-44
2023/11/29 06:47:06;;;;;;;9.73;5.90;;;3.50;99.90;;;;;;5021841;28;20196;-40
2023/11/29 06:49:32;;;;;;;17.10;6.65;;;3.60;99.90;;;;;;5021709;28;20188;-43
2023/11/29 06:51:58;;;;;;;9.07;5.97;;;3.60;99.90;;;;;;5020599;28;20206;-42
2023/11/29 06:54:24;;;;;;;11.82;5.43;;;3.50;99.90;;;;;;5020249;28;20294;-40
2023/11/29 06:56:49;;;;;;;14.98;5.97;;;3.60;99.90;;;;;;5021833;28;20694;-44
2023/11/29 06:59:15;;;;;;;8.75;5.28;;;3.60;99.90;;;;;;5020528;28;20188;-45
2023/11/29 07:01:42;;;;;;;10.73;5.32;;;3.50;99.90;;;;;;5052644;28;20621;-46
2023/11/29 07:04:08;;;;;;;11.43;5.20;;;3.50;99.90;;;;;;5020867;28;20183;-43
2023/11/29 07:06:34;;;;;;;8.88;5.10;;;3.50;99.90;;;;;;5019972;28;20184;-40
2023/11/29 07:09:00;;;;;;;8.80;5.03;;;3.50;99.90;;;;;;5021495;28;20662;-45
2023/11/29 07:11:26;;;;;;;6.32;3.67;;;3.50;99.90;;;;;;5020896;28;20187;-40
2023/11/29 07:13:52;;;;;;;4.55;3.70;;;3.40;99.90;;;;;;5021618;28;20274;-41
2023/11/29 07:16:17;;;;;;;9.38;4.43;;;3.40;99.90;;;;;;5018844;28;20211;-43
2023/11/29 07:18:43;;;;;;;5.43;3.47;;;3.30;99.90;;;;;;5020984;28;20187;-39
2023/11/29 07:21:09;;;;;;;8.43;3.63;;;3.40;99.90;;;;;;5020349;28;20354;-41
2023/11/29 07:23:35;;;;;;;8.50;3.45;;;3.30;99.90;;;;;;5020914;28;20207;-42
2023/11/29 07:26:01;;;;;;;6.35;3.92;;;3.30;99.90;;;;;;5019919;28;20180;-45
2023/11/29 07:28:27;;;;;;;6.47;3.95;;;3.30;99.90;;;;;;5020655;28;20244;-42
2023/11/29 07:30:53;;;;;;;6.47;3.90;;;3.20;99.90;;;;;;5036012;28;20228;-38
2023/11/29 07:33:19;;;;;;;11.70;4.50;;;3.30;99.90;;;;;;5020874;28;20245;-41
2023/11/29 07:35:45;;;;;;;7.00;4.47;;;3.20;99.90;;;;;;5020161;28;20188;-42
2023/11/29 07:38:12;;;;;;;9.57;4.28;;;3.30;99.90;;;;;;5020584;28;20192;-40
2023/11/29 07:40:37;;;;;;;9.10;4.30;;;3.30;99.90;;;;;;5018609;28;20216;-44
2023/11/29 07:43:03;;;;;;;8.50;4.38;;;3.30;99.90;;;;;;5020796;28;20196;-42
2023/11/29 07:45:29;;;;;;;7.20;3.70;;;3.30;99.90;;;;;;5018912;28;20172;-44
2023/11/29 07:47:55;;;;;;;11.50;4.15;;;3.40;99.90;;;;;;5035948;28;20195;-40
2023/11/29 07:50:21;;;;;;;13.02;4.00;;;3.40;99.90;;;;;;5019815;28;20180;-44
2023/11/29 07:52:47;;;;;;;10.63;4.05;;;3.40;99.90;;;;;;5020185;28;20187;-44
2023/11/29 07:55:13;;;;;;;10.32;4.20;;;3.40;99.90;;;;;;5052031;28;20187;-41
2023/11/29 07:57:39;;;;;;;9.23;3.65;;;3.40;99.90;;;;;;5020357;28;20676;-42
2023/11/29 08:00:05;;;;;;;7.85;3.67;;;3.40;99.90;;;;;;5017993;28;20320;-41
2023/11/29 08:02:39;;;;;;;8.50;3.88;;;3.40;99.90;;;;;;5019079;28;20236;-45
2023/11/29 08:05:05;;;;;;;7.45;3.42;;;3.40;99.90;;;;;;5019844;28;20563;-38
2023/11/29 08:07:32;;;;;;;6.90;3.45;;;3.50;99.90;;;;;;5019401;28;20298;-42
2023/11/29 08:10:01;;;;;;;6.22;3.50;;;3.40;99.90;;;;;;5018370;28;20291;-43
2023/11/29 08:12:28;;;;;;;8.00;3.72;;;3.40;99.90;;;;;;5019459;28;20286;-43
2023/11/29 08:14:55;;;;;;;13.82;4.00;;;3.30;99.90;;;;;;5018144;28;20222;-45
2023/11/29 08:17:21;;;;;;;8.93;3.70;;;3.30;99.90;;;;;;5020054;28;20199;-43
2023/11/29 08:19:47;;;;;;;7.75;3.78;;;3.30;99.90;;;;;;5018253;28;20200;-42
2023/11/29 08:22:14;;;;;;;3.78;3.22;;;3.20;99.90;;;;;;5051045;28;20306;-45
2023/11/29 08:24:40;;;;;;;10.45;3.50;;;3.20;99.90;;;;;;5018500;28;20199;-45
2023/11/29 08:27:06;;;;;;;7.63;3.47;;;3.10;99.90;;;;;;5018734;28;20188;-41
2023/11/29 08:29:32;;;;;;;9.23;4.18;;;3.10;99.90;;;;;;5018114;28;20211;-40
2023/11/29 08:31:58;;;;;;;9.93;3.10;;;3.10;99.90;;;;;;5017584;28;20233;-40
2023/11/29 08:34:24;;;;;;;5.63;2.72;;;3.10;99.90;;;;;;5019410;28;20191;-44
2023/11/29 08:36:50;;;;;;;5.32;2.80;;;3.10;99.90;;;;;;5017528;28;20210;-42
2023/11/29 08:39:16;;;;;;;6.82;2.67;;;3.10;99.90;;;;;;5018802;28;20204;-45
2023/11/29 08:41:43;;;;;;;7.47;3.00;;;3.10;99.90;;;;;;5019056;28;20757;-42
2023/11/29 08:44:12;;;;;;;6.07;2.65;;;3.10;99.90;;;;;;5050732;28;20195;-41
2023/11/29 08:46:38;;;;;;;5.00;2.70;;;3.10;99.90;;;;;;5018264;28;20662;-44
2023/11/29 08:49:03;;;;;;;11.70;2.95;;;3.20;99.90;;;;;;5017548;28;20192;-41
2023/11/29 08:51:29;;;;;;;6.57;2.97;;;3.20;99.90;;;;;;5018634;28;20196;-38
2023/11/29 08:53:55;;;;;;;6.60;3.10;;;3.30;99.90;;;;;;5050573;28;20758;-43
2023/11/29 08:56:21;;;;;;;10.05;3.20;;;3.40;99.90;;;;;;5017063;28;21044;-43
2023/11/29 08:58:48;;;;;;;9.57;3.00;;;3.50;99.90;;;;;;5019059;28;20199;-46
2023/11/29 09:01:18;;;;;;;5.80;2.65;;;3.60;99.90;;;;;;5017928;28;20239;-44
2023/11/29 09:03:45;;;;;;;10.00;2.75;;;3.70;99.90;;;;;;5017889;28;20228;-42
2023/11/29 09:06:11;;;;;;;11.50;2.85;;;3.80;99.90;;;;;;5018828;28;20177;-44
2023/11/29 09:08:37;;;;;;;12.15;3.67;;;3.90;99.90;;;;;;5018525;28;20195;-41
2023/11/29 09:11:04;;;;;;;7.85;2.58;;;4.00;99.90;;;;;;5019393;28;20730;-42
2023/11/29 09:13:29;;;;;;;7.82;2.70;;;4.00;99.90;;;;;;5033768;28;20278;-41
2023/11/29 09:15:56;;;;;;;5.35;2.50;;;4.00;99.90;;;;;;5019061;28;20267;-39
2023/11/29 09:18:23;;;;;;;7.30;3.00;;;4.10;99.90;;;;;;5034466;28;20188;-43
2023/11/29 09:20:49;;;;;;;7.95;2.50;;;4.10;99.90;;;;;;5020562;28;20813;-40
2023/11/29 09:23:15;;;;;;;7.63;2.42;;;4.10;99.90;;;;;;5022154;28;20196;-38
2023/11/29 09:25:40;;;;;;;6.03;2.33;;;4.10;99.90;;;;;;5020982;28;20180;-43
2023/11/29 09:28:06;;;;;;;6.20;2.50;;;4.00;99.90;;;;;;5054001;28;20246;-45
2023/11/29 09:30:35;;;;;;;8.77;2.80;;;4.10;99.90;;;;;;5021707;28;20242;-39
2023/11/29 09:33:01;;;;;;;12.65;2.30;;;4.00;99.90;;;;;;5022528;28;20655;-46
2023/11/29 09:35:27;;;;;;;10.23;2.72;;;4.00;99.90;;;;;;5021857;28;20184;-41
2023/11/29 09:37:53;;;;;;;6.88;2.20;;;4.00;99.90;;;;;;5022589;28;20241;-43
2023/11/29 09:40:19;;;;;;;5.38;2.50;;;4.00;99.90;;;;;;5021827;28;20680;-42
2023/11/29 09:42:46;;;;;;;21.92;2.67;;;4.00;99.90;;;;;;5021704;28;20219;-40
2023/11/29 09:45:21;;;;;;;7.10;2.53;;;4.10;99.90;;;;;;5021831;28;20199;-42
2023/11/29 09:47:48;;;;;;;6.22;2.13;;;4.10;99.90;;;;;;5022034;28;20253;-37
2023/11/29 09:50:17;;;;;;;4.25;2.30;;;4.20;99.90;;;;;;5019815;28;20204;-39
2023/11/29 09:52:43;;;;;;;6.97;2.80;;;4.20;99.90;;;;;;5021162;28;20593;-37
2023/11/29 09:55:12;;;;;;;9.27;2.90;;;4.20;99.90;;;;;;5021176;28;20195;-38
2023/11/29 09:57:39;;;;;;;5.20;2.28;;;4.20;99.90;;;;;;5020949;28;20279;-39
2023/11/29 10:00:10;;;;;;;4.32;2.00;;;4.30;99.90;;;;;;5021738;28;20199;-37
2023/11/29 10:02:38;;;;;;;5.72;2.40;;;4.30;99.90;;;;;;5020731;28;22016;-37
2023/11/29 10:05:04;;;;;;;9.82;2.17;;;4.40;99.90;;;;;;5021734;28;20196;-39
2023/11/29 10:07:30;;;;;;;3.92;2.20;;;4.40;99.90;;;;;;5020691;28;20532;-36
2023/11/29 10:10:06;;;;;;;3.28;2.30;;;4.40;99.90;;;;;;5018998;28;20246;-38
2023/11/29 10:12:35;;;;;;;4.78;2.45;;;4.30;99.90;;;;;;5018775;28;20231;-36
2023/11/29 10:15:01;;;;;;;10.25;3.40;;;4.30;99.90;;;;;;5021030;28;20188;-37
2023/11/29 10:17:29;;;;;;;4.90;2.13;;;4.40;99.90;;;;;;5021198;28;20192;-38
2023/11/29 10:19:56;;;;;;;3.38;2.03;;;4.40;99.90;;;;;;5003178;28;20267;-38
2023/11/29 10:22:22;;;;;;;7.00;2.05;;;4.50;99.90;;;;;;5021735;28;20203;-37
2023/11/29 10:24:48;;;;;;;3.85;2.30;;;4.50;99.90;;;;;;5036968;28;20199;-37
2023/11/29 10:27:18;;;;;;;9.05;2.28;;;4.50;99.90;;;;;;5021934;28;20187;-38
2023/11/29 10:29:45;;;;;;;4.35;2.10;;;4.60;99.90;;;;;;5021344;28;20292;-39
2023/11/29 10:32:13;;;;;;;3.35;2.08;;;4.70;99.90;;;;;;5022114;28;20643;-35
2023/11/29 10:34:39;;;;;;;5.43;2.13;;;4.60;99.90;;;;;;5021204;28;20236;-38
2023/11/29 10:37:06;;;;;;;4.90;2.13;;;4.70;99.90;;;;;;5022122;28;20191;-38
2023/11/29 10:39:33;;;;;;;7.88;2.00;;;4.70;99.90;;;;;;5037150;28;20187;-37
2023/11/29 10:42:02;;;;;;;6.68;2.28;;;4.70;99.90;;;;;;5021419;28;20257;-39
2023/11/29 10:44:36;;;;;;;5.32;2.47;;;4.70;99.90;;;;;;5019978;28;20198;-38
2023/11/29 10:47:13;;;;;;;5.20;2.20;;;4.80;99.90;;;;;;5022159;28;20194;-39
2023/11/29 10:49:46;;;;;;;6.53;2.10;;;4.90;99.90;;;;;;5021001;28;20196;-37
2023/11/29 10:52:13;;;;;;;9.55;2.30;;;4.90;99.90;;;;;;5021128;28;20183;-37
2023/11/29 10:54:39;;;;;;;5.05;1.90;;;4.90;99.90;;;;;;5022204;28;20253;-40
2023/11/29 10:57:06;;;;;;;6.05;2.10;;;5.00;99.90;;;;;;5021934;28;20275;-38
2023/11/29 10:59:34;;;;;;;6.40;2.10;;;5.10;99.90;;;;;;5020430;28;20215;-38
2023/11/29 11:02:00;;;;;;;5.03;2.00;;;5.20;99.90;;;;;;5022047;28;20231;-40
2023/11/29 11:04:33;;;;;;;6.25;2.10;;;5.20;99.90;;;;;;5021716;28;20192;-39
2023/11/29 11:07:02;;;;;;;4.70;2.00;;;5.30;99.90;;;;;;5021033;28;20191;-37
2023/11/29 11:09:40;;;;;;;8.90;2.65;;;5.40;99.90;;;;;;5020802;28;20212;-39
2023/11/29 11:12:07;;;;;;;4.60;1.98;;;5.40;99.90;;;;;;5019116;28;20194;-37
2023/11/29 11:14:48;;;;;;;3.45;2.00;;;5.50;99.90;;;;;;5020908;28;20192;-36
2023/11/29 11:17:18;;;;;;;6.82;2.28;;;5.50;99.90;;;;;;5019858;28;20187;-38
2023/11/29 11:19:46;;;;;;;5.78;2.00;;;5.60;99.90;;;;;;5020236;28;20215;-36
2023/11/29 11:22:22;;;;;;;9.15;2.08;;;5.60;99.90;;;;;;5020998;28;20214;-40
2023/11/29 11:25:05;;;;;;;4.22;2.17;;;5.60;99.90;;;;;;5021291;28;20188;-37
2023/11/29 11:27:35;;;;;;;4.50;2.20;;;5.70;99.90;;;;;;5021196;28;20646;-39
2023/11/29 11:30:21;;;;;;;4.80;2.42;;;5.70;99.90;;;;;;5019838;28;20837;-40
2023/11/29 11:32:47;;;;;;;5.45;2.50;;;5.80;99.90;;;;;;5036481;28;20179;-39
2023/11/29 11:35:25;;;;;;;4.22;1.95;;;5.80;99.90;;;;;;5020105;28;20191;-38
2023/11/29 11:37:53;;;;;;;7.28;2.83;;;5.80;99.90;;;;;;5019958;28;20851;-39
2023/11/29 11:40:20;;;;;;;8.48;2.10;;;5.80;99.90;;;;;;5021511;28;20176;-36
2023/11/29 11:42:47;;;;;;;5.50;2.20;;;5.80;99.90;;;;;;5020915;28;21305;-39
2023/11/29 11:45:14;;;;;;;5.75;1.98;;;5.80;99.90;;;;;;5019688;28;20643;-38
2023/11/29 11:47:42;;;;;;;3.80;2.13;;;5.80;99.90;;;;;;5020779;28;20803;-39
2023/11/29 11:50:09;;;;;;;4.07;2.30;;;5.80;99.90;;;;;;5035046;28;20813;-36
2023/11/29 11:52:36;;;;;;;4.97;2.30;;;5.80;99.90;;;;;;5019220;28;20202;-40
2023/11/29 11:55:03;;;;;;;6.65;2.10;;;5.80;99.90;;;;;;5021360;28;20196;-37
2023/11/29 11:57:30;;;;;;;5.40;1.98;;;5.80;99.90;;;;;;5019433;28;20247;-39
2023/11/29 11:59:57;;;;;;;3.95;2.10;;;5.80;99.90;;;;;;5021326;28;20250;-38
2023/11/29 12:02:23;;;;;;;6.10;2.05;;;5.80;99.90;;;;;;5034411;28;20228;-39
2023/11/29 12:04:50;;;;;;;3.55;2.08;;;5.80;99.90;;;;;;5020421;28;20242;-39
2023/11/29 12:07:19;;;;;;;2.45;1.90;;;5.90;99.90;;;;;;5018903;28;20207;-38
2023/11/29 12:09:46;;;;;;;5.50;2.55;;;5.90;99.90;;;;;;5020916;28;20215;-41
2023/11/29 12:12:14;;;;;;;6.72;2.50;;;5.90;99.90;;;;;;5020160;28;20663;-38
2023/11/29 12:14:45;;;;;;;5.53;2.80;;;5.90;99.90;;;;;;5020291;28;20203;-38
2023/11/29 12:17:12;;;;;;;6.72;2.25;;;5.90;99.90;;;;;;5020813;28;20180;-37
2023/11/29 12:19:41;;;;;;;4.90;2.13;;;6.00;99.90;;;;;;5020641;28;20192;-40
2023/11/29 12:22:07;;;;;;;3.55;2.33;;;6.00;99.90;;;;;;5035570;28;20573;-38
2023/11/29 12:24:47;;;;;;;7.82;2.55;;;6.00;99.90;;;;;;5019818;28;20283;-39
2023/11/29 12:27:17;;;;;;;7.15;2.38;;;6.00;99.90;;;;;;5051226;28;20239;-40
2023/11/29 12:29:56;;;;;;;6.85;2.80;;;6.10;99.90;;;;;;5020848;28;20651;-37
2023/11/29 12:32:28;;;;;;;5.55;2.10;;;6.10;99.90;;;;;;5020219;28;20274;-39
2023/11/29 12:34:56;;;;;;;6.32;1.98;;;6.20;99.90;;;;;;5020784;28;20199;-38
2023/11/29 12:37:23;;;;;;;3.20;2.38;;;6.20;99.90;;;;;;5020410;28;20250;-40
2023/11/29 12:39:50;;;;;;;6.15;3.13;;;6.10;99.90;;;;;;5020944;28;20364;-38
2023/11/29 12:42:15;;;;;;;4.40;2.17;;;6.20;99.90;;;;;;5020081;28;20207;-36
2023/11/29 12:44:42;;;;;;;4.78;2.10;;;6.30;99.90;;;;;;5019470;28;20678;-38
2023/11/29 12:47:08;;;;;;;7.25;2.22;;;6.30;99.90;;;;;;5020703;28;20207;-39
2023/11/29 12:49:34;;;;;;;5.47;2.20;;;6.30;99.90;;;;;;5019183;28;20194;-38
2023/11/29 12:52:00;;;;;;;4.55;2.17;;;6.40;99.90;;;;;;5018732;28;20192;-40
2023/11/29 12:54:27;;;;;;;5.80;1.98;;;6.40;99.90;;;;;;5021984;28;20204;-39